sensor_id;sensor_type;location;lat;lon;timestamp;temperature;humidity
67572;SHT31;54397;47.506;19.158;2023-05-27T00:02:14;20.81;68.47
67572;SHT31;54397;47.506;19.158;2023-05-27T00:05:36;20.94;68.20
67572;SHT31;54397;47.506;19.158;2023-05-27T00:08:57;20.84;68.62
67572;SHT31;54397;47.506;19.158;2023-05-27T00:12:19;20.72;68.84
67572;SHT31;54397;47.506;19.158;2023-05-27T00:15:43;20.68;69.04
67572;SHT31;54397;47.506;19.158;2023-05-27T00:19:05;20.65;69.28
67572;SHT31;54397;47.506;19.158;2023-05-27T00:22:28;20.68;69.14
67572;SHT31;54397;47.506;19.158;2023-05-27T00:25:49;20.74;69.05
67572;SHT31;54397;47.506;19.158;2023-05-27T00:29:11;20.65;69.42
67572;SHT31;54397;47.506;19.158;2023-05-27T00:32:35;20.63;69.56
67572;SHT31;54397;47.506;19.158;2023-05-27T00:35:59;20.52;69.72
67572;SHT31;54397;47.506;19.158;2023-05-27T00:39:21;20.58;69.80
67572;SHT31;54397;47.506;19.158;2023-05-27T00:42:43;20.57;69.53
67572;SHT31;54397;47.506;19.158;2023-05-27T00:46:04;20.48;69.87
67572;SHT31;54397;47.506;19.158;2023-05-27T00:49:28;20.57;69.51
67572;SHT31;54397;47.506;19.158;2023-05-27T00:52:51;20.52;69.87
67572;SHT31;54397;47.506;19.158;2023-05-27T00:56:12;20.52;69.85
67572;SHT31;54397;47.506;19.158;2023-05-27T00:59:39;20.34;70.25
67572;SHT31;54397;47.506;19.158;2023-05-27T01:03:01;20.39;70.10
67572;SHT31;54397;47.506;19.158;2023-05-27T01:06:38;20.29;70.40
67572;SHT31;54397;47.506;19.158;2023-05-27T01:13:40;20.30;70.34
67572;SHT31;54397;47.506;19.158;2023-05-27T01:17:05;20.29;70.31
67572;SHT31;54397;47.506;19.158;2023-05-27T01:20:28;20.37;70.16
67572;SHT31;54397;47.506;19.158;2023-05-27T01:23:51;20.41;69.97
67572;SHT31;54397;47.506;19.158;2023-05-27T01:27:17;20.36;70.25
67572;SHT31;54397;47.506;19.158;2023-05-27T01:30:39;20.24;70.53
67572;SHT31;54397;47.506;19.158;2023-05-27T01:34:13;20.13;71.04
67572;SHT31;54397;47.506;19.158;2023-05-27T01:37:38;20.06;71.22
67572;SHT31;54397;47.506;19.158;2023-05-27T01:41:01;20.00;71.60
67572;SHT31;54397;47.506;19.158;2023-05-27T01:44:23;20.00;71.66
67572;SHT31;54397;47.506;19.158;2023-05-27T01:47:50;20.00;71.82
67572;SHT31;54397;47.506;19.158;2023-05-27T01:51:14;19.95;71.94
67572;SHT31;54397;47.506;19.158;2023-05-27T01:54:36;19.86;72.13
67572;SHT31;54397;47.506;19.158;2023-05-27T01:58:00;19.83;72.62
67572;SHT31;54397;47.506;19.158;2023-05-27T02:01:22;19.83;72.33
67572;SHT31;54397;47.506;19.158;2023-05-27T02:04:44;19.85;72.50
67572;SHT31;54397;47.506;19.158;2023-05-27T02:08:08;19.86;72.35
67572;SHT31;54397;47.506;19.158;2023-05-27T02:11:31;19.79;72.62
67572;SHT31;54397;47.506;19.158;2023-05-27T02:14:52;19.79;72.79
67572;SHT31;54397;47.506;19.158;2023-05-27T02:18:14;19.69;72.98
67572;SHT31;54397;47.506;19.158;2023-05-27T02:21:36;19.68;73.00
67572;SHT31;54397;47.506;19.158;2023-05-27T02:25:01;19.72;72.87
67572;SHT31;54397;47.506;19.158;2023-05-27T02:28:23;19.71;72.64
67572;SHT31;54397;47.506;19.158;2023-05-27T02:31:44;19.64;72.56
67572;SHT31;54397;47.506;19.158;2023-05-27T02:35:12;19.57;72.85
67572;SHT31;54397;47.506;19.158;2023-05-27T02:38:34;19.51;73.09
67572;SHT31;54397;47.506;19.158;2023-05-27T02:41:58;19.50;73.33
67572;SHT31;54397;47.506;19.158;2023-05-27T02:45:20;19.58;73.08
67572;SHT31;54397;47.506;19.158;2023-05-27T02:48:43;19.43;73.58
67572;SHT31;54397;47.506;19.158;2023-05-27T02:52:08;19.44;73.82
67572;SHT31;54397;47.506;19.158;2023-05-27T02:55:32;19.45;73.81
67572;SHT31;54397;47.506;19.158;2023-05-27T02:58:53;19.59;73.18
67572;SHT31;54397;47.506;19.158;2023-05-27T03:02:17;19.58;72.86
67572;SHT31;54397;47.506;19.158;2023-05-27T03:05:39;19.54;73.38
67572;SHT31;54397;47.506;19.158;2023-05-27T03:09:03;19.47;73.72
67572;SHT31;54397;47.506;19.158;2023-05-27T03:12:28;19.55;73.28
67572;SHT31;54397;47.506;19.158;2023-05-27T03:15:50;19.74;72.53
67572;SHT31;54397;47.506;19.158;2023-05-27T03:19:12;19.71;72.56
67572;SHT31;54397;47.506;19.158;2023-05-27T03:22:36;19.68;72.81
67572;SHT31;54397;47.506;19.158;2023-05-27T03:25:58;19.83;72.31
67572;SHT31;54397;47.506;19.158;2023-05-27T03:29:22;19.71;72.81
67572;SHT31;54397;47.506;19.158;2023-05-27T03:32:44;19.87;72.23
67572;SHT31;54397;47.506;19.158;2023-05-27T03:36:06;19.78;72.27
67572;SHT31;54397;47.506;19.158;2023-05-27T03:39:30;19.69;72.58
67572;SHT31;54397;47.506;19.158;2023-05-27T03:42:53;19.57;72.72
67572;SHT31;54397;47.506;19.158;2023-05-27T03:46:17;19.51;72.86
67572;SHT31;54397;47.506;19.158;2023-05-27T03:49:41;19.55;72.54
67572;SHT31;54397;47.506;19.158;2023-05-27T03:53:05;19.44;72.02
67572;SHT31;54397;47.506;19.158;2023-05-27T03:56:27;19.47;72.50
67572;SHT31;54397;47.506;19.158;2023-05-27T03:59:48;19.47;72.83
67572;SHT31;54397;47.506;19.158;2023-05-27T04:03:12;19.57;72.25
67572;SHT31;54397;47.506;19.158;2023-05-27T04:06:37;19.57;71.88
67572;SHT31;54397;47.506;19.158;2023-05-27T04:09:58;19.57;72.37
67572;SHT31;54397;47.506;19.158;2023-05-27T04:13:20;19.55;72.01
67572;SHT31;54397;47.506;19.158;2023-05-27T04:16:42;19.62;71.55
67572;SHT31;54397;47.506;19.158;2023-05-27T04:20:10;19.68;71.21
67572;SHT31;54397;47.506;19.158;2023-05-27T04:23:35;19.75;70.91
67572;SHT31;54397;47.506;19.158;2023-05-27T04:26:57;19.82;71.15
67572;SHT31;54397;47.506;19.158;2023-05-27T04:30:19;19.92;70.73
67572;SHT31;54397;47.506;19.158;2023-05-27T04:33:42;19.85;71.09
67572;SHT31;54397;47.506;19.158;2023-05-27T04:37:04;19.75;70.35
67572;SHT31;54397;47.506;19.158;2023-05-27T04:40:28;19.59;70.82
67572;SHT31;54397;47.506;19.158;2023-05-27T04:43:55;19.62;71.40
67572;SHT31;54397;47.506;19.158;2023-05-27T04:47:19;19.81;70.36
67572;SHT31;54397;47.506;19.158;2023-05-27T04:50:45;19.83;70.21
67572;SHT31;54397;47.506;19.158;2023-05-27T04:54:07;19.95;70.47
67572;SHT31;54397;47.506;19.158;2023-05-27T04:57:29;20.03;68.64
67572;SHT31;54397;47.506;19.158;2023-05-27T05:00:50;19.89;69.14
67572;SHT31;54397;47.506;19.158;2023-05-27T05:04:14;19.82;69.84
67572;SHT31;54397;47.506;19.158;2023-05-27T05:07:36;20.09;69.05
67572;SHT31;54397;47.506;19.158;2023-05-27T05:11:01;20.22;68.39
67572;SHT31;54397;47.506;19.158;2023-05-27T05:14:23;20.27;67.61
67572;SHT31;54397;47.506;19.158;2023-05-27T05:17:47;20.48;67.89
67572;SHT31;54397;47.506;19.158;2023-05-27T05:21:11;20.67;67.12
67572;SHT31;54397;47.506;19.158;2023-05-27T05:24:35;20.94;65.09
67572;SHT31;54397;47.506;19.158;2023-05-27T05:27:56;21.23;64.93
67572;SHT31;54397;47.506;19.158;2023-05-27T05:31:18;20.94;64.09
67572;SHT31;54397;47.506;19.158;2023-05-27T05:34:40;21.03;64.95
67572;SHT31;54397;47.506;19.158;2023-05-27T05:38:01;21.03;65.04
67572;SHT31;54397;47.506;19.158;2023-05-27T05:41:23;21.05;64.98
67572;SHT31;54397;47.506;19.158;2023-05-27T05:44:45;21.23;63.98
67572;SHT31;54397;47.506;19.158;2023-05-27T05:48:09;21.36;63.63
67572;SHT31;54397;47.506;19.158;2023-05-27T05:51:31;21.40;63.42
67572;SHT31;54397;47.506;19.158;2023-05-27T05:54:53;21.64;61.48
67572;SHT31;54397;47.506;19.158;2023-05-27T05:58:15;21.84;61.49
67572;SHT31;54397;47.506;19.158;2023-05-27T06:01:36;22.16;60.31
67572;SHT31;54397;47.506;19.158;2023-05-27T06:04:58;22.50;59.80
67572;SHT31;54397;47.506;19.158;2023-05-27T06:08:22;22.80;59.11
67572;SHT31;54397;47.506;19.158;2023-05-27T06:11:44;22.42;58.08
67572;SHT31;54397;47.506;19.158;2023-05-27T06:15:08;22.87;58.15
67572;SHT31;54397;47.506;19.158;2023-05-27T06:18:30;22.32;57.89
67572;SHT31;54397;47.506;19.158;2023-05-27T06:21:54;22.05;59.81
67572;SHT31;54397;47.506;19.158;2023-05-27T06:25:15;22.05;59.46
67572;SHT31;54397;47.506;19.158;2023-05-27T06:28:37;22.48;58.54
67572;SHT31;54397;47.506;19.158;2023-05-27T06:31:59;22.90;58.33
67572;SHT31;54397;47.506;19.158;2023-05-27T06:35:21;22.83;57.71
67572;SHT31;54397;47.506;19.158;2023-05-27T06:38:43;22.81;58.14
67572;SHT31;54397;47.506;19.158;2023-05-27T06:42:05;23.01;55.90
67572;SHT31;54397;47.506;19.158;2023-05-27T06:45:27;22.71;56.23
67572;SHT31;54397;47.506;19.158;2023-05-27T06:48:53;22.96;56.01
67572;SHT31;54397;47.506;19.158;2023-05-27T06:52:15;23.28;55.94
67572;SHT31;54397;47.506;19.158;2023-05-27T06:55:37;23.45;54.42
67572;SHT31;54397;47.506;19.158;2023-05-27T06:59:01;23.49;54.58
67572;SHT31;54397;47.506;19.158;2023-05-27T07:02:22;23.72;54.33
67572;SHT31;54397;47.506;19.158;2023-05-27T07:05:44;24.00;53.62
67572;SHT31;54397;47.506;19.158;2023-05-27T07:09:08;24.24;50.49
67572;SHT31;54397;47.506;19.158;2023-05-27T07:12:32;24.40;51.72
67572;SHT31;54397;47.506;19.158;2023-05-27T07:15:56;24.24;51.13
67572;SHT31;54397;47.506;19.158;2023-05-27T07:19:18;24.52;50.53
67572;SHT31;54397;47.506;19.158;2023-05-27T07:22:40;24.52;49.86
67572;SHT31;54397;47.506;19.158;2023-05-27T07:26:01;24.88;50.75
67572;SHT31;54397;47.506;19.158;2023-05-27T07:29:23;24.72;49.86
67572;SHT31;54397;47.506;19.158;2023-05-27T07:32:47;24.92;49.19
67572;SHT31;54397;47.506;19.158;2023-05-27T07:36:12;25.05;47.67
67572;SHT31;54397;47.506;19.158;2023-05-27T07:39:36;25.16;47.16
67572;SHT31;54397;47.506;19.158;2023-05-27T07:43:00;25.16;49.61
67572;SHT31;54397;47.506;19.158;2023-05-27T07:46:24;25.03;48.02
67572;SHT31;54397;47.506;19.158;2023-05-27T07:49:46;25.58;48.09
67572;SHT31;54397;47.506;19.158;2023-05-27T07:53:08;25.95;47.47
67572;SHT31;54397;47.506;19.158;2023-05-27T07:56:30;26.30;46.38
67572;SHT31;54397;47.506;19.158;2023-05-27T07:59:51;25.62;46.16
67572;SHT31;54397;47.506;19.158;2023-05-27T08:03:16;25.96;47.50
67572;SHT31;54397;47.506;19.158;2023-05-27T08:06:40;26.18;46.74
67572;SHT31;54397;47.506;19.158;2023-05-27T08:10:02;25.70;46.23
67572;SHT31;54397;47.506;19.158;2023-05-27T08:13:26;25.78;47.38
67572;SHT31;54397;47.506;19.158;2023-05-27T08:16:48;25.34;46.49
67572;SHT31;54397;47.506;19.158;2023-05-27T08:20:10;25.07;47.96
67572;SHT31;54397;47.506;19.158;2023-05-27T08:23:37;25.41;48.74
67572;SHT31;54397;47.506;19.158;2023-05-27T08:26:58;25.53;45.73
67572;SHT31;54397;47.506;19.158;2023-05-27T08:30:20;25.91;47.92
67572;SHT31;54397;47.506;19.158;2023-05-27T08:33:42;25.96;46.62
67572;SHT31;54397;47.506;19.158;2023-05-27T08:37:04;26.02;46.31
67572;SHT31;54397;47.506;19.158;2023-05-27T08:40:30;26.19;45.27
67572;SHT31;54397;47.506;19.158;2023-05-27T08:43:54;26.03;45.87
67572;SHT31;54397;47.506;19.158;2023-05-27T08:47:39;26.35;46.15
67572;SHT31;54397;47.506;19.158;2023-05-27T08:51:02;26.16;44.73
67572;SHT31;54397;47.506;19.158;2023-05-27T08:54:25;25.64;46.07
67572;SHT31;54397;47.506;19.158;2023-05-27T08:58:06;26.35;46.73
67572;SHT31;54397;47.506;19.158;2023-05-27T09:01:31;26.70;45.11
67572;SHT31;54397;47.506;19.158;2023-05-27T09:04:55;25.92;44.69
67572;SHT31;54397;47.506;19.158;2023-05-27T09:08:20;25.84;47.63
67572;SHT31;54397;47.506;19.158;2023-05-27T09:11:42;25.61;46.78
67572;SHT31;54397;47.506;19.158;2023-05-27T09:15:04;26.37;47.62
67572;SHT31;54397;47.506;19.158;2023-05-27T09:18:32;26.76;43.94
67572;SHT31;54397;47.506;19.158;2023-05-27T09:21:54;25.89;45.04
67572;SHT31;54397;47.506;19.158;2023-05-27T09:25:15;25.47;47.34
67572;SHT31;54397;47.506;19.158;2023-05-27T09:28:41;26.03;46.78
67572;SHT31;54397;47.506;19.158;2023-05-27T09:32:03;26.35;46.88
67572;SHT31;54397;47.506;19.158;2023-05-27T09:35:29;27.02;46.73
67572;SHT31;54397;47.506;19.158;2023-05-27T09:38:50;26.68;44.76
67572;SHT31;54397;47.506;19.158;2023-05-27T09:42:14;26.02;46.06
67572;SHT31;54397;47.506;19.158;2023-05-27T09:45:40;26.22;47.16
67572;SHT31;54397;47.506;19.158;2023-05-27T09:49:06;26.29;46.61
67572;SHT31;54397;47.506;19.158;2023-05-27T09:52:28;26.39;46.96
67572;SHT31;54397;47.506;19.158;2023-05-27T09:55:52;26.22;45.89
67572;SHT31;54397;47.506;19.158;2023-05-27T09:59:17;26.08;47.30
67572;SHT31;54397;47.506;19.158;2023-05-27T10:02:44;26.12;46.77
67572;SHT31;54397;47.506;19.158;2023-05-27T10:06:08;26.22;47.32
67572;SHT31;54397;47.506;19.158;2023-05-27T10:09:29;26.25;47.34
67572;SHT31;54397;47.506;19.158;2023-05-27T10:12:52;26.35;47.56
67572;SHT31;54397;47.506;19.158;2023-05-27T10:16:22;26.10;45.85
67572;SHT31;54397;47.506;19.158;2023-05-27T10:19:54;25.70;48.16
67572;SHT31;54397;47.506;19.158;2023-05-27T10:23:21;25.45;47.54
67572;SHT31;54397;47.506;19.158;2023-05-27T10:26:47;25.72;48.08
67572;SHT31;54397;47.506;19.158;2023-05-27T10:30:10;25.84;48.19
67572;SHT31;54397;47.506;19.158;2023-05-27T10:33:41;25.55;46.63
67572;SHT31;54397;47.506;19.158;2023-05-27T10:37:06;25.24;46.15
67572;SHT31;54397;47.506;19.158;2023-05-27T10:40:28;25.34;48.47
67572;SHT31;54397;47.506;19.158;2023-05-27T10:43:57;25.30;48.78
67572;SHT31;54397;47.506;19.158;2023-05-27T10:47:28;25.28;48.30
67572;SHT31;54397;47.506;19.158;2023-05-27T10:50:52;25.40;47.58
67572;SHT31;54397;47.506;19.158;2023-05-27T10:54:15;25.70;47.88
67572;SHT31;54397;47.506;19.158;2023-05-27T10:57:50;25.84;46.23
67572;SHT31;54397;47.506;19.158;2023-05-27T11:01:14;26.06;45.86
67572;SHT31;54397;47.506;19.158;2023-05-27T11:04:38;26.32;46.33
67572;SHT31;54397;47.506;19.158;2023-05-27T11:08:03;26.49;45.79
67572;SHT31;54397;47.506;19.158;2023-05-27T11:11:30;26.47;46.46
67572;SHT31;54397;47.506;19.158;2023-05-27T11:14:52;26.65;47.66
67572;SHT31;54397;47.506;19.158;2023-05-27T11:18:14;26.67;47.20
67572;SHT31;54397;47.506;19.158;2023-05-27T11:21:52;26.54;47.57
67572;SHT31;54397;47.506;19.158;2023-05-27T11:25:14;26.32;46.35
67572;SHT31;54397;47.506;19.158;2023-05-27T11:28:38;26.32;47.22
67572;SHT31;54397;47.506;19.158;2023-05-27T11:32:06;26.28;46.35
67572;SHT31;54397;47.506;19.158;2023-05-27T11:35:28;26.02;46.51
67572;SHT31;54397;47.506;19.158;2023-05-27T11:38:57;26.67;44.88
67572;SHT31;54397;47.506;19.158;2023-05-27T11:42:24;26.29;44.29
67572;SHT31;54397;47.506;19.158;2023-05-27T11:45:46;25.95;44.68
67572;SHT31;54397;47.506;19.158;2023-05-27T11:49:14;25.57;45.37
67572;SHT31;54397;47.506;19.158;2023-05-27T11:52:55;25.64;46.79
67572;SHT31;54397;47.506;19.158;2023-05-27T11:56:17;25.81;47.01
67572;SHT31;54397;47.506;19.158;2023-05-27T11:59:39;26.20;45.46
67572;SHT31;54397;47.506;19.158;2023-05-27T12:03:00;26.63;45.17
67572;SHT31;54397;47.506;19.158;2023-05-27T12:06:25;26.91;44.15
67572;SHT31;54397;47.506;19.158;2023-05-27T12:09:47;26.80;43.58
67572;SHT31;54397;47.506;19.158;2023-05-27T12:13:15;27.01;43.50
67572;SHT31;54397;47.506;19.158;2023-05-27T12:16:36;27.16;43.57
67572;SHT31;54397;47.506;19.158;2023-05-27T12:20:01;27.38;43.81
67572;SHT31;54397;47.506;19.158;2023-05-27T12:23:25;27.46;42.32
67572;SHT31;54397;47.506;19.158;2023-05-27T12:26:49;27.25;41.63
67572;SHT31;54397;47.506;19.158;2023-05-27T12:30:11;26.68;41.54
67572;SHT31;54397;47.506;19.158;2023-05-27T12:33:38;26.81;42.82
67572;SHT31;54397;47.506;19.158;2023-05-27T12:37:02;27.28;43.57
67572;SHT31;54397;47.506;19.158;2023-05-27T12:40:29;27.60;43.84
67572;SHT31;54397;47.506;19.158;2023-05-27T12:43:51;27.19;43.48
67572;SHT31;54397;47.506;19.158;2023-05-27T12:47:12;26.90;46.07
67572;SHT31;54397;47.506;19.158;2023-05-27T12:50:36;26.61;45.26
67572;SHT31;54397;47.506;19.158;2023-05-27T12:53:58;26.10;46.32
67572;SHT31;54397;47.506;19.158;2023-05-27T12:57:19;25.99;47.66
67572;SHT31;54397;47.506;19.158;2023-05-27T13:00:41;25.99;47.56
67572;SHT31;54397;47.506;19.158;2023-05-27T13:04:05;25.89;48.02
67572;SHT31;54397;47.506;19.158;2023-05-27T13:07:30;25.75;48.00
67572;SHT31;54397;47.506;19.158;2023-05-27T13:10:55;25.67;48.89
67572;SHT31;54397;47.506;19.158;2023-05-27T13:14:16;25.81;48.45
67572;SHT31;54397;47.506;19.158;2023-05-27T13:17:46;25.80;48.46
67572;SHT31;54397;47.506;19.158;2023-05-27T13:21:08;25.31;49.91
67572;SHT31;54397;47.506;19.158;2023-05-27T13:24:32;25.26;49.60
67572;SHT31;54397;47.506;19.158;2023-05-27T13:27:56;25.23;49.15
67572;SHT31;54397;47.506;19.158;2023-05-27T13:31:18;25.38;49.75
67572;SHT31;54397;47.506;19.158;2023-05-27T13:34:40;25.31;49.62
67572;SHT31;54397;47.506;19.158;2023-05-27T13:38:01;25.30;49.49
67572;SHT31;54397;47.506;19.158;2023-05-27T13:41:24;25.15;49.97
67572;SHT31;54397;47.506;19.158;2023-05-27T13:44:46;25.10;49.89
67572;SHT31;54397;47.506;19.158;2023-05-27T13:48:08;25.34;50.79
67572;SHT31;54397;47.506;19.158;2023-05-27T13:51:33;25.51;50.36
67572;SHT31;54397;47.506;19.158;2023-05-27T13:54:54;25.86;49.96
67572;SHT31;54397;47.506;19.158;2023-05-27T13:58:17;26.22;48.97
67572;SHT31;54397;47.506;19.158;2023-05-27T14:01:41;26.50;48.51
67572;SHT31;54397;47.506;19.158;2023-05-27T14:05:03;26.51;47.83
67572;SHT31;54397;47.506;19.158;2023-05-27T14:08:25;25.77;48.70
67572;SHT31;54397;47.506;19.158;2023-05-27T14:11:50;25.82;49.13
67572;SHT31;54397;47.506;19.158;2023-05-27T14:15:14;25.44;49.45
67572;SHT31;54397;47.506;19.158;2023-05-27T14:18:36;25.62;49.89
67572;SHT31;54397;47.506;19.158;2023-05-27T14:21:57;25.53;50.33
67572;SHT31;54397;47.506;19.158;2023-05-27T14:25:19;25.37;51.55
67572;SHT31;54397;47.506;19.158;2023-05-27T14:28:42;25.44;51.56
67572;SHT31;54397;47.506;19.158;2023-05-27T14:32:07;25.28;51.47
67572;SHT31;54397;47.506;19.158;2023-05-27T14:35:29;25.43;51.85
67572;SHT31;54397;47.506;19.158;2023-05-27T14:38:56;25.30;50.07
67572;SHT31;54397;47.506;19.158;2023-05-27T14:42:18;25.47;51.13
67572;SHT31;54397;47.506;19.158;2023-05-27T14:45:42;25.68;50.85
67572;SHT31;54397;47.506;19.158;2023-05-27T14:49:04;25.70;49.54
67572;SHT31;54397;47.506;19.158;2023-05-27T14:52:28;25.34;50.79
67572;SHT31;54397;47.506;19.158;2023-05-27T14:55:52;25.50;51.48
67572;SHT31;54397;47.506;19.158;2023-05-27T14:59:16;25.43;49.56
67572;SHT31;54397;47.506;19.158;2023-05-27T15:02:38;25.78;49.45
67572;SHT31;54397;47.506;19.158;2023-05-27T15:06:00;25.72;49.21
67572;SHT31;54397;47.506;19.158;2023-05-27T15:09:22;25.43;49.02
67572;SHT31;54397;47.506;19.158;2023-05-27T15:12:46;25.30;50.36
67572;SHT31;54397;47.506;19.158;2023-05-27T15:16:08;25.34;50.28
67572;SHT31;54397;47.506;19.158;2023-05-27T15:19:30;25.57;50.42
67572;SHT31;54397;47.506;19.158;2023-05-27T15:22:52;25.45;49.09
67572;SHT31;54397;47.506;19.158;2023-05-27T15:26:13;25.05;49.98
67572;SHT31;54397;47.506;19.158;2023-05-27T15:29:35;25.19;50.73
67572;SHT31;54397;47.506;19.158;2023-05-27T15:32:57;24.95;50.52
67572;SHT31;54397;47.506;19.158;2023-05-27T15:36:21;25.17;50.11
67572;SHT31;54397;47.506;19.158;2023-05-27T15:39:43;25.17;50.36
67572;SHT31;54397;47.506;19.158;2023-05-27T15:43:04;25.33;50.04
67572;SHT31;54397;47.506;19.158;2023-05-27T15:46:30;25.47;49.16
67572;SHT31;54397;47.506;19.158;2023-05-27T15:49:56;25.53;49.46
67572;SHT31;54397;47.506;19.158;2023-05-27T15:53:18;25.55;49.40
67572;SHT31;54397;47.506;19.158;2023-05-27T15:56:42;25.34;49.57
67572;SHT31;54397;47.506;19.158;2023-05-27T16:00:06;25.27;49.74
67572;SHT31;54397;47.506;19.158;2023-05-27T16:03:31;24.67;50.98
67572;SHT31;54397;47.506;19.158;2023-05-27T16:06:57;24.72;51.47
67572;SHT31;54397;47.506;19.158;2023-05-27T16:10:21;24.83;51.23
67572;SHT31;54397;47.506;19.158;2023-05-27T16:13:43;24.72;51.36
67572;SHT31;54397;47.506;19.158;2023-05-27T16:17:05;24.54;51.49
67572;SHT31;54397;47.506;19.158;2023-05-27T16:20:27;24.55;52.26
67572;SHT31;54397;47.506;19.158;2023-05-27T16:23:51;24.55;52.51
67572;SHT31;54397;47.506;19.158;2023-05-27T16:27:29;24.49;52.64
67572;SHT31;54397;47.506;19.158;2023-05-27T16:30:53;24.44;51.39
67572;SHT31;54397;47.506;19.158;2023-05-27T16:34:15;24.64;52.00
67572;SHT31;54397;47.506;19.158;2023-05-27T16:37:36;24.90;51.48
67572;SHT31;54397;47.506;19.158;2023-05-27T16:40:59;24.89;51.22
67572;SHT31;54397;47.506;19.158;2023-05-27T16:44:24;24.92;51.43
67572;SHT31;54397;47.506;19.158;2023-05-27T16:47:45;25.02;51.12
67572;SHT31;54397;47.506;19.158;2023-05-27T16:51:09;24.88;51.29
67572;SHT31;54397;47.506;19.158;2023-05-27T16:54:31;24.78;51.94
67572;SHT31;54397;47.506;19.158;2023-05-27T16:57:53;24.76;52.23
67572;SHT31;54397;47.506;19.158;2023-05-27T17:01:15;24.96;51.17
67572;SHT31;54397;47.506;19.158;2023-05-27T17:04:39;24.78;51.52
67572;SHT31;54397;47.506;19.158;2023-05-27T17:08:03;24.83;51.57
67572;SHT31;54397;47.506;19.158;2023-05-27T17:11:25;24.85;51.71
67572;SHT31;54397;47.506;19.158;2023-05-27T17:14:48;24.79;51.70
67572;SHT31;54397;47.506;19.158;2023-05-27T17:18:09;24.62;52.42
67572;SHT31;54397;47.506;19.158;2023-05-27T17:21:33;24.42;53.04
67572;SHT31;54397;47.506;19.158;2023-05-27T17:24:55;24.40;52.66
67572;SHT31;54397;47.506;19.158;2023-05-27T17:28:19;24.40;52.20
67572;SHT31;54397;47.506;19.158;2023-05-27T17:31:40;24.22;53.18
67572;SHT31;54397;47.506;19.158;2023-05-27T17:35:05;24.03;53.73
67572;SHT31;54397;47.506;19.158;2023-05-27T17:38:27;23.94;54.00
67572;SHT31;54397;47.506;19.158;2023-05-27T17:41:51;23.90;54.48
67572;SHT31;54397;47.506;19.158;2023-05-27T17:45:15;23.80;54.78
67572;SHT31;54397;47.506;19.158;2023-05-27T17:48:38;23.72;54.83
67572;SHT31;54397;47.506;19.158;2023-05-27T17:52:02;23.62;54.94
67572;SHT31;54397;47.506;19.158;2023-05-27T17:55:40;23.55;55.37
67572;SHT31;54397;47.506;19.158;2023-05-27T17:59:02;23.49;55.34
67572;SHT31;54397;47.506;19.158;2023-05-27T18:02:25;23.41;56.00
67572;SHT31;54397;47.506;19.158;2023-05-27T18:05:49;23.31;56.22
67572;SHT31;54397;47.506;19.158;2023-05-27T18:09:15;23.22;56.54
67572;SHT31;54397;47.506;19.158;2023-05-27T18:12:39;23.15;57.15
67572;SHT31;54397;47.506;19.158;2023-05-27T18:16:03;23.11;57.27
67572;SHT31;54397;47.506;19.158;2023-05-27T18:19:28;23.03;57.69
67572;SHT31;54397;47.506;19.158;2023-05-27T18:22:51;22.91;58.01
67572;SHT31;54397;47.506;19.158;2023-05-27T18:26:18;22.88;58.06
67572;SHT31;54397;47.506;19.158;2023-05-27T18:29:39;22.81;58.50
67572;SHT31;54397;47.506;19.158;2023-05-27T18:33:05;22.70;59.23
67572;SHT31;54397;47.506;19.158;2023-05-27T18:36:27;22.64;59.54
67572;SHT31;54397;47.506;19.158;2023-05-27T18:39:49;22.59;59.86
67572;SHT31;54397;47.506;19.158;2023-05-27T18:43:11;22.46;60.48
67572;SHT31;54397;47.506;19.158;2023-05-27T18:46:33;22.39;61.17
67572;SHT31;54397;47.506;19.158;2023-05-27T18:49:55;22.31;61.54
67572;SHT31;54397;47.506;19.158;2023-05-27T18:53:18;22.18;62.21
67572;SHT31;54397;47.506;19.158;2023-05-27T18:56:39;22.15;62.64
67572;SHT31;54397;47.506;19.158;2023-05-27T19:00:01;22.05;63.11
67572;SHT31;54397;47.506;19.158;2023-05-27T19:03:27;22.04;63.46
67572;SHT31;54397;47.506;19.158;2023-05-27T19:06:51;22.01;63.97
67572;SHT31;54397;47.506;19.158;2023-05-27T19:10:15;21.98;63.87
67572;SHT31;54397;47.506;19.158;2023-05-27T19:13:36;21.98;62.74
67572;SHT31;54397;47.506;19.158;2023-05-27T19:16:58;22.04;56.66
67572;SHT31;54397;47.506;19.158;2023-05-27T19:20:23;22.04;56.13
67572;SHT31;54397;47.506;19.158;2023-05-27T19:23:45;22.05;54.26
67572;SHT31;54397;47.506;19.158;2023-05-27T19:27:09;22.06;54.06
67572;SHT31;54397;47.506;19.158;2023-05-27T19:30:30;22.04;52.95
67572;SHT31;54397;47.506;19.158;2023-05-27T19:33:52;22.06;53.38
67572;SHT31;54397;47.506;19.158;2023-05-27T19:37:14;22.05;52.55
67572;SHT31;54397;47.506;19.158;2023-05-27T19:40:36;21.94;52.98
67572;SHT31;54397;47.506;19.158;2023-05-27T19:44:00;21.83;52.73
67572;SHT31;54397;47.506;19.158;2023-05-27T19:47:21;21.78;52.52
67572;SHT31;54397;47.506;19.158;2023-05-27T19:50:43;21.77;52.65
67572;SHT31;54397;47.506;19.158;2023-05-27T19:54:10;21.65;52.83
67572;SHT31;54397;47.506;19.158;2023-05-27T19:57:31;21.64;52.19
67572;SHT31;54397;47.506;19.158;2023-05-27T20:00:53;21.64;52.76
67572;SHT31;54397;47.506;19.158;2023-05-27T20:04:17;21.50;52.27
67572;SHT31;54397;47.506;19.158;2023-05-27T20:07:39;21.42;52.23
67572;SHT31;54397;47.506;19.158;2023-05-27T20:11:04;21.40;52.22
67572;SHT31;54397;47.506;19.158;2023-05-27T20:14:26;21.40;52.41
67572;SHT31;54397;47.506;19.158;2023-05-27T20:17:47;21.26;52.60
67572;SHT31;54397;47.506;19.158;2023-05-27T20:21:09;21.23;52.65
67572;SHT31;54397;47.506;19.158;2023-05-27T20:24:32;21.12;53.04
67572;SHT31;54397;47.506;19.158;2023-05-27T20:27:54;21.20;53.09
67572;SHT31;54397;47.506;19.158;2023-05-27T20:31:15;21.15;52.45
67572;SHT31;54397;47.506;19.158;2023-05-27T20:34:40;21.06;52.92
67572;SHT31;54397;47.506;19.158;2023-05-27T20:38:01;20.87;52.87
67572;SHT31;54397;47.506;19.158;2023-05-27T20:41:26;20.85;52.51
67572;SHT31;54397;47.506;19.158;2023-05-27T20:44:50;20.74;52.68
67572;SHT31;54397;47.506;19.158;2023-05-27T20:48:12;20.74;52.56
67572;SHT31;54397;47.506;19.158;2023-05-27T20:51:34;20.79;52.43
67572;SHT31;54397;47.506;19.158;2023-05-27T20:54:56;20.75;52.22
67572;SHT31;54397;47.506;19.158;2023-05-27T20:58:17;20.67;52.55
67572;SHT31;54397;47.506;19.158;2023-05-27T21:01:43;20.47;53.38
67572;SHT31;54397;47.506;19.158;2023-05-27T21:05:06;20.50;53.23
67572;SHT31;54397;47.506;19.158;2023-05-27T21:08:28;20.45;53.18